Meteo Giornale » Osservazioni meteo Italia » Ronchi Dei Legionari

ore: 03:50 - Osservazioni Meteo Ronchi Dei Legionari
Lat. 45° 49' N Lon. 13° 29' E Alt. 12 metri s.l.m.

sereno Europe/Rome

16 °C

Sereno

Temp. 24 Ore

16 °C

29 °C

Nord

7.4 Km/h

Dew point 16 °C

Umidità 100 %

Visibilità  10 Km

Il sole sorge alle ore 05:48

Il sole tramonta alle ore 20:35

Data e Ora Cielo e Fenomeni T °C DP °C Um. % Pres. hPa Vis. km Vento km/h
Oggi h: 03:50 sereno Sereno 16 16 100 1009 10 N 7.4
Oggi h: 03:20 sereno Sereno 17 17 100 1009 10 N 5.5
Oggi h: 02:50 sereno Sereno 17 17 100 1009 10 N/NE 7.4
Oggi h: 02:20 sereno Sereno 18 17 93 1009 10 N/NE 7.4
Oggi h: 01:50 sereno Sereno 18 17 93 1008 10 N 7.4
Oggi h: 01:20 sereno Sereno 18 17 93 1008 10 N 7.4
Oggi h: 00:50 sereno Sereno 18 18 100 1008 10 NE 7.4
Oggi h: 00:20 sereno Sereno 18 18 100 1008 10 N 9.3
Ieri h: 23:50 sereno Sereno 18 17 93 1008 10 N 9.3
Ieri h: 23:20 sereno Sereno 19 17 88 1008 10 N 5.5
Ieri h: 22:50 poco_nuvoloso Poco Nuvoloso 19 18 93 1008 10 N/NE 7.4
Ieri h: 22:20 nuvoloso Nuvoloso 19 18 93 1008 10 N/NE 9.3
Ieri h: 21:50 coperto_pioggia Pioggia Debole 20 19 93 1008 10 N/NO 9.3
Ieri h: 21:20 molto_nuvoloso Molto Nuvoloso 20 19 93 1007 10 N 7.4
Ieri h: 20:20 nuvoloso_temporali Temporale nelle Vicinanze 21 18 82 1006 10 E/NE 7.4
Ieri h: 19:50 molto_nuvoloso Molto Nuvoloso 21 18 82 1007 10 N 5.5
Ieri h: 19:20 nuvoloso_temporali Temporale con Pioggia 23 17 68 1007 10 O/SO 14.8
Ieri h: 18:50 coperto_temporali Temporale 25 16 57 1005 10 E 7.4
Ieri h: 18:20 nuvoloso_temporali Temporale nelle Vicinanze 26 17 57 1005 10 NE 13
Ieri h: 17:50 molto_nuvoloso Molto Nuvoloso 25 17 61 1005 10 N 16.7
Ieri h: 17:20 molto_nuvoloso Molto Nuvoloso 25 17 61 1006 10 N 9.3
Ieri h: 16:50 molto_nuvoloso Molto Nuvoloso 25 18 65 1005 10 N/NE 11.1
Ieri h: 15:50 nuvoloso_temporali Temporale nelle Vicinanze 24 16 60 1005 10 N/NO 14.8
Ieri h: 15:20 molto_nuvoloso Molto Nuvoloso 26 15 50 1004 10 O 25.9
Ieri h: 14:50 molto_nuvoloso Molto Nuvoloso 28 21 65 1004 10 SO 27.8
Ieri h: 14:20 molto_nuvoloso Molto Nuvoloso 28 22 69 1003 10 S/SO 27.8
Ieri h: 13:50 nuvoloso Nuvoloso 28 23 74 1004 10 SO 20.3
Ieri h: 13:20 poco_nuvoloso Poco Nuvoloso 29 21 62 1003 10 SO 27.8
Ieri h: 12:50 nuvoloso_temporali Temporale nelle Vicinanze 29 21 62 1002 10 SO 29.6
Ieri h: 12:20 coperto_temporali Temporale 29 22 66 1002 10 SO 22.2
Ieri h: 11:50 poco_nuvoloso Poco Nuvoloso 29 23 70 1003 10 SO 20.3
Ieri h: 11:20 nuvoloso_temporali Temporale nelle Vicinanze 27 20 65 1003 10 NO 7.4
Ieri h: 10:50 coperto_temporali Temporale 24 18 69 1004 10 O 25.9
Ieri h: 10:20 nuvoloso_temporali Temporale nelle Vicinanze 28 23 74 1004 10 S 22.2
Ieri h: 09:50 sereno Sereno 29 22 66 1003 10 S 14.8
Ieri h: 09:20 sereno Sereno 29 22 66 1003 10 S 16.7
Ieri h: 08:50 sereno Sereno 28 22 69 1004 10 S 11.1
Ieri h: 08:20 sereno Sereno 28 22 69 1004 10 S 7.4
Ieri h: 07:50 sereno Sereno 27 21 69 1004 10 S/SO 7.4
Ieri h: 07:20 sereno Sereno 27 21 69 1004 10 S/SO 13
Ieri h: 06:50 nuvoloso Nuvoloso 27 22 74 1003 10 S 11.1
Ieri h: 06:20 molto_nuvoloso Molto Nuvoloso 27 23 78 1004 10 S 13
Ieri h: 05:50 molto_nuvoloso Molto Nuvoloso 27 22 74 1004 10 S 14.8
Ieri h: 05:20 molto_nuvoloso Molto Nuvoloso 27 20 65 1004 10 S/SE 13
Ieri h: 04:50 poco_nuvoloso Poco Nuvoloso 27 19 61 1004 10 SE 14.8